sensor_id;sensor_type;location;lat;lon;timestamp;pressure;altitude;pressure_sealevel;temperature;humidity
72093;BME280;59965;48.192;11.618;2022-07-04T00:02:01;96131.47;;;21.75;61.02
72093;BME280;59965;48.192;11.618;2022-07-04T00:04:27;96124.19;;;21.72;61.04
72093;BME280;59965;48.192;11.618;2022-07-04T00:06:53;96149.69;;;21.83;60.39
72093;BME280;59965;48.192;11.618;2022-07-04T00:09:19;96146.09;;;21.89;59.36
72093;BME280;59965;48.192;11.618;2022-07-04T00:11:44;96148.28;;;21.94;59.24
72093;BME280;59965;48.192;11.618;2022-07-04T00:14:10;96149.03;;;22.01;58.37
72093;BME280;59965;48.192;11.618;2022-07-04T00:16:36;96135.19;;;21.99;58.52
72093;BME280;59965;48.192;11.618;2022-07-04T00:19:02;96134.50;;;22.09;57.72
72093;BME280;59965;48.192;11.618;2022-07-04T00:21:28;96136.72;;;22.14;57.57
72093;BME280;59965;48.192;11.618;2022-07-04T00:23:54;96141.09;;;22.17;57.93
72093;BME280;59965;48.192;11.618;2022-07-04T00:26:20;96127.25;;;22.14;57.65
72093;BME280;59965;48.192;11.618;2022-07-04T00:28:46;96137.44;;;22.23;57.58
72093;BME280;59965;48.192;11.618;2022-07-04T00:31:13;96136.75;;;22.26;57.34
72093;BME280;59965;48.192;11.618;2022-07-04T00:33:39;96148.38;;;22.30;57.19
72093;BME280;59965;48.192;11.618;2022-07-04T00:36:05;96165.13;;;22.32;57.15
72093;BME280;59965;48.192;11.618;2022-07-04T00:38:31;96163.66;;;22.33;57.62
72093;BME280;59965;48.192;11.618;2022-07-04T00:40:57;96169.53;;;22.37;58.16
72093;BME280;59965;48.192;11.618;2022-07-04T00:43:26;96157.84;;;22.35;58.95
72093;BME280;59965;48.192;11.618;2022-07-04T00:45:52;96148.44;;;22.38;59.37
72093;BME280;59965;48.192;11.618;2022-07-04T00:48:19;96141.84;;;22.36;60.05
72093;BME280;59965;48.192;11.618;2022-07-04T00:50:46;96136.00;;;22.34;59.94
72093;BME280;59965;48.192;11.618;2022-07-04T00:53:17;96143.28;;;22.27;60.88
72093;BME280;59965;48.192;11.618;2022-07-04T00:55:45;96147.66;;;22.26;60.35
72093;BME280;59965;48.192;11.618;2022-07-04T00:58:13;96154.19;;;22.24;60.82
72093;BME280;59965;48.192;11.618;2022-07-04T01:00:39;96146.19;;;22.21;60.64
72093;BME280;59965;48.192;11.618;2022-07-04T01:03:05;96149.06;;;22.11;61.35
72093;BME280;59965;48.192;11.618;2022-07-04T01:05:31;96163.63;;;22.17;60.96
72093;BME280;59965;48.192;11.618;2022-07-04T01:07:58;96175.25;;;22.11;60.67
72093;BME280;59965;48.192;11.618;2022-07-04T01:10:24;96167.94;;;22.02;61.11
72093;BME280;59965;48.192;11.618;2022-07-04T01:12:49;96151.94;;;22.01;61.00
72093;BME280;59965;48.192;11.618;2022-07-04T01:15:15;96169.41;;;22.01;61.31
72093;BME280;59965;48.192;11.618;2022-07-04T01:17:41;96154.09;;;21.98;61.65
72093;BME280;59965;48.192;11.618;2022-07-04T01:20:12;96157.75;;;21.95;61.44
72093;BME280;59965;48.192;11.618;2022-07-04T01:22:39;96165.72;;;21.90;61.92
72093;BME280;59965;48.192;11.618;2022-07-04T01:25:05;96188.25;;;21.90;61.71
72093;BME280;59965;48.192;11.618;2022-07-04T01:27:31;96173.66;;;21.82;61.72
72093;BME280;59965;48.192;11.618;2022-07-04T01:29:57;96173.69;;;21.84;61.25
72093;BME280;59965;48.192;11.618;2022-07-04T01:32:23;96166.41;;;21.83;61.90
72093;BME280;59965;48.192;11.618;2022-07-04T01:34:49;96167.13;;;21.79;61.24
72093;BME280;59965;48.192;11.618;2022-07-04T01:37:15;96170.03;;;21.77;61.23
72093;BME280;59965;48.192;11.618;2022-07-04T01:39:41;96170.72;;;21.76;61.00
72093;BME280;59965;48.192;11.618;2022-07-04T01:42:08;96170.00;;;21.73;60.79
72093;BME280;59965;48.192;11.618;2022-07-04T01:44:34;96172.91;;;21.75;61.28
72093;BME280;59965;48.192;11.618;2022-07-04T01:47:01;96152.56;;;21.75;61.18
72093;BME280;59965;48.192;11.618;2022-07-04T01:49:28;96140.19;;;21.71;61.64
72093;BME280;59965;48.192;11.618;2022-07-04T01:51:54;96132.91;;;21.72;62.28
72093;BME280;59965;48.192;11.618;2022-07-04T01:54:20;96137.25;;;21.63;62.06
72093;BME280;59965;48.192;11.618;2022-07-04T01:56:46;96127.78;;;21.61;62.10
72093;BME280;59965;48.192;11.618;2022-07-04T01:59:12;96117.59;;;21.60;62.29
72093;BME280;59965;48.192;11.618;2022-07-04T02:01:38;96122.66;;;21.59;62.69
72093;BME280;59965;48.192;11.618;2022-07-04T02:04:06;96119.03;;;21.59;63.08
72093;BME280;59965;48.192;11.618;2022-07-04T02:06:34;96115.38;;;21.56;63.64
72093;BME280;59965;48.192;11.618;2022-07-04T02:09:00;96118.28;;;21.52;63.41
72093;BME280;59965;48.192;11.618;2022-07-04T02:11:43;96110.97;;;21.45;63.73
72093;BME280;59965;48.192;11.618;2022-07-04T02:14:29;96096.34;;;21.27;63.85
72093;BME280;59965;48.192;11.618;2022-07-04T02:16:55;96101.44;;;21.31;64.30
72093;BME280;59965;48.192;11.618;2022-07-04T02:19:21;96120.31;;;21.28;64.31
72093;BME280;59965;48.192;11.618;2022-07-04T02:21:47;96118.09;;;21.24;64.53
72093;BME280;59965;48.192;11.618;2022-07-04T02:24:13;96105.69;;;21.10;64.53
72093;BME280;59965;48.192;11.618;2022-07-04T02:26:39;96115.09;;;21.06;64.96
72093;BME280;59965;48.192;11.618;2022-07-04T02:29:05;96135.44;;;21.06;65.33
72093;BME280;59965;48.192;11.618;2022-07-04T02:31:31;96136.81;;;20.99;65.65
72093;BME280;59965;48.192;11.618;2022-07-04T02:33:57;96135.34;;;20.96;65.52
72093;BME280;59965;48.192;11.618;2022-07-04T02:36:23;96128.06;;;20.89;65.87
72093;BME280;59965;48.192;11.618;2022-07-04T02:38:49;96132.38;;;20.84;66.12
72093;BME280;59965;48.192;11.618;2022-07-04T02:41:15;96143.25;;;20.84;66.24
72093;BME280;59965;48.192;11.618;2022-07-04T02:43:41;96137.44;;;20.84;66.31
72093;BME280;59965;48.192;11.618;2022-07-04T02:46:07;96135.22;;;20.80;66.75
72093;BME280;59965;48.192;11.618;2022-07-04T02:48:33;96142.53;;;20.83;66.65
72093;BME280;59965;48.192;11.618;2022-07-04T02:50:58;96149.78;;;20.82;66.53
72093;BME280;59965;48.192;11.618;2022-07-04T02:53:24;96151.94;;;20.84;66.56
72093;BME280;59965;48.192;11.618;2022-07-04T02:55:50;96155.59;;;20.84;66.76
72093;BME280;59965;48.192;11.618;2022-07-04T02:58:16;96141.06;;;20.84;66.30
72093;BME280;59965;48.192;11.618;2022-07-04T03:00:42;96151.94;;;20.84;66.67
72093;BME280;59965;48.192;11.618;2022-07-04T03:03:08;96162.81;;;20.81;66.54
72093;BME280;59965;48.192;11.618;2022-07-04T03:05:34;96157.69;;;20.80;66.32
72093;BME280;59965;48.192;11.618;2022-07-04T03:08:00;96170.78;;;20.81;67.30
72093;BME280;59965;48.192;11.618;2022-07-04T03:10:26;96159.13;;;20.79;66.70
72093;BME280;59965;48.192;11.618;2022-07-04T03:12:51;96155.53;;;20.78;66.64
72093;BME280;59965;48.192;11.618;2022-07-04T03:15:17;96156.22;;;20.77;67.34
72093;BME280;59965;48.192;11.618;2022-07-04T03:17:43;96157.66;;;20.76;67.47
72093;BME280;59965;48.192;11.618;2022-07-04T03:20:10;96153.25;;;20.69;67.33
72093;BME280;59965;48.192;11.618;2022-07-04T03:22:36;96145.25;;;20.67;67.65
72093;BME280;59965;48.192;11.618;2022-07-04T03:25:02;96137.22;;;20.62;67.64
72093;BME280;59965;48.192;11.618;2022-07-04T03:27:28;96148.13;;;20.63;68.21
72093;BME280;59965;48.192;11.618;2022-07-04T03:29:54;96148.06;;;20.57;67.63
72093;BME280;59965;48.192;11.618;2022-07-04T03:32:20;96150.94;;;20.55;68.11
72093;BME280;59965;48.192;11.618;2022-07-04T03:34:46;96144.34;;;20.45;68.56
72093;BME280;59965;48.192;11.618;2022-07-04T03:37:11;96158.13;;;20.48;68.73
72093;BME280;59965;48.192;11.618;2022-07-04T03:39:37;96180.69;;;20.52;69.26
72093;BME280;59965;48.192;11.618;2022-07-04T03:42:04;96189.34;;;20.48;68.82
72093;BME280;59965;48.192;11.618;2022-07-04T03:44:30;96179.81;;;20.39;68.68
72093;BME280;59965;48.192;11.618;2022-07-04T03:46:56;96184.97;;;20.45;69.18
72093;BME280;59965;48.192;11.618;2022-07-04T03:49:21;96191.50;;;20.47;69.24
72093;BME280;59965;48.192;11.618;2022-07-04T03:51:47;96187.13;;;20.46;68.67
72093;BME280;59965;48.192;11.618;2022-07-04T03:54:13;96182.06;;;20.45;69.43
72093;BME280;59965;48.192;11.618;2022-07-04T03:56:39;96189.31;;;20.44;69.49
72093;BME280;59965;48.192;11.618;2022-07-04T03:59:05;96184.16;;;20.38;69.64
72093;BME280;59965;48.192;11.618;2022-07-04T04:01:31;96190.63;;;20.35;69.62
72093;BME280;59965;48.192;11.618;2022-07-04T04:03:57;96192.81;;;20.32;69.73
72093;BME280;59965;48.192;11.618;2022-07-04T04:06:42;96202.94;;;20.31;69.64
72093;BME280;59965;48.192;11.618;2022-07-04T04:09:08;96209.41;;;20.28;70.31
72093;BME280;59965;48.192;11.618;2022-07-04T04:11:39;96222.47;;;20.27;69.89
72093;BME280;59965;48.192;11.618;2022-07-04T04:14:05;96226.84;;;20.30;70.32
72093;BME280;59965;48.192;11.618;2022-07-04T04:16:30;96234.88;;;20.33;69.61
72093;BME280;59965;48.192;11.618;2022-07-04T04:18:56;96231.22;;;20.33;69.83
72093;BME280;59965;48.192;11.618;2022-07-04T04:21:23;96234.91;;;20.35;70.46
72093;BME280;59965;48.192;11.618;2022-07-04T04:23:49;96243.63;;;20.37;70.00
72093;BME280;59965;48.192;11.618;2022-07-04T04:26:15;96233.47;;;20.36;70.11
72093;BME280;59965;48.192;11.618;2022-07-04T04:28:41;96240.75;;;20.39;69.77
72093;BME280;59965;48.192;11.618;2022-07-04T04:31:07;96234.97;;;20.41;70.35
72093;BME280;59965;48.192;11.618;2022-07-04T04:33:34;96239.25;;;20.36;69.85
72093;BME280;59965;48.192;11.618;2022-07-04T04:36:00;96252.41;;;20.43;71.08
72093;BME280;59965;48.192;11.618;2022-07-04T04:38:26;96248.00;;;20.40;71.12
72093;BME280;59965;48.192;11.618;2022-07-04T04:40:52;96257.47;;;20.41;71.82
72093;BME280;59965;48.192;11.618;2022-07-04T04:43:18;96248.69;;;20.39;72.19
72093;BME280;59965;48.192;11.618;2022-07-04T04:45:44;96250.88;;;20.38;72.14
72093;BME280;59965;48.192;11.618;2022-07-04T04:48:10;96245.78;;;20.37;72.29
72093;BME280;59965;48.192;11.618;2022-07-04T04:50:36;96249.44;;;20.37;72.43
72093;BME280;59965;48.192;11.618;2022-07-04T04:53:02;96229.72;;;20.28;72.48
72093;BME280;59965;48.192;11.618;2022-07-04T04:55:28;96248.75;;;20.41;73.01
72093;BME280;59965;48.192;11.618;2022-07-04T04:57:54;96242.22;;;20.40;73.08
72093;BME280;59965;48.192;11.618;2022-07-04T05:00:20;96241.69;;;20.60;73.19
72093;BME280;59965;48.192;11.618;2022-07-04T05:02:46;96252.53;;;20.55;73.04
72093;BME280;59965;48.192;11.618;2022-07-04T05:05:12;96261.97;;;20.56;72.87
72093;BME280;59965;48.192;11.618;2022-07-04T05:07:38;96249.63;;;20.57;73.32
72093;BME280;59965;48.192;11.618;2022-07-04T05:10:04;96263.44;;;20.57;73.00
72093;BME280;59965;48.192;11.618;2022-07-04T05:12:30;96275.78;;;20.59;71.64
72093;BME280;59965;48.192;11.618;2022-07-04T05:14:56;96280.19;;;20.64;71.63
72093;BME280;59965;48.192;11.618;2022-07-04T05:17:23;96283.13;;;20.68;71.71
72093;BME280;59965;48.192;11.618;2022-07-04T05:19:49;96283.19;;;20.72;72.28
72093;BME280;59965;48.192;11.618;2022-07-04T05:22:15;96292.63;;;20.75;71.34
72093;BME280;59965;48.192;11.618;2022-07-04T05:24:41;96295.56;;;20.77;71.81
72093;BME280;59965;48.192;11.618;2022-07-04T05:27:08;96287.63;;;20.81;70.55
72093;BME280;59965;48.192;11.618;2022-07-04T05:29:34;96300.75;;;20.84;70.08
72093;BME280;59965;48.192;11.618;2022-07-04T05:32:00;96299.34;;;20.87;69.56
72093;BME280;59965;48.192;11.618;2022-07-04T05:34:26;96298.59;;;20.87;69.90
72093;BME280;59965;48.192;11.618;2022-07-04T05:36:52;96303.72;;;20.90;70.47
72093;BME280;59965;48.192;11.618;2022-07-04T05:39:20;96295.00;;;20.90;70.04
72093;BME280;59965;48.192;11.618;2022-07-04T05:41:46;96284.88;;;20.93;69.99
72093;BME280;59965;48.192;11.618;2022-07-04T05:44:12;96287.78;;;20.93;69.78
72093;BME280;59965;48.192;11.618;2022-07-04T05:46:38;96287.81;;;20.95;69.84
72093;BME280;59965;48.192;11.618;2022-07-04T05:49:04;96299.41;;;20.95;71.21
72093;BME280;59965;48.192;11.618;2022-07-04T05:51:30;96293.59;;;20.95;70.71
72093;BME280;59965;48.192;11.618;2022-07-04T05:53:56;96290.72;;;20.97;70.75
72093;BME280;59965;48.192;11.618;2022-07-04T05:56:22;96292.94;;;20.99;70.65
72093;BME280;59965;48.192;11.618;2022-07-04T05:58:49;96302.38;;;21.01;70.60
72093;BME280;59965;48.192;11.618;2022-07-04T06:01:15;96307.50;;;21.03;69.89
72093;BME280;59965;48.192;11.618;2022-07-04T06:03:40;96311.84;;;21.02;69.70
72093;BME280;59965;48.192;11.618;2022-07-04T06:06:07;96316.16;;;20.99;69.98
72093;BME280;59965;48.192;11.618;2022-07-04T06:08:33;96324.91;;;21.01;69.65
72093;BME280;59965;48.192;11.618;2022-07-04T06:11:00;96333.63;;;21.03;70.07
72093;BME280;59965;48.192;11.618;2022-07-04T06:13:26;96322.00;;;21.03;69.98
72093;BME280;59965;48.192;11.618;2022-07-04T06:15:53;96326.41;;;21.06;69.48
72093;BME280;59965;48.192;11.618;2022-07-04T06:18:19;96327.13;;;21.06;69.47
72093;BME280;59965;48.192;11.618;2022-07-04T06:20:44;96314.03;;;21.05;69.14
72093;BME280;59965;48.192;11.618;2022-07-04T06:23:10;96322.75;;;21.05;68.32
72093;BME280;59965;48.192;11.618;2022-07-04T06:25:36;96317.66;;;21.02;68.22
72093;BME280;59965;48.192;11.618;2022-07-04T06:28:03;96322.69;;;20.99;68.00
72093;BME280;59965;48.192;11.618;2022-07-04T06:30:29;96327.78;;;20.99;68.63
72093;BME280;59965;48.192;11.618;2022-07-04T06:32:57;96326.31;;;20.98;68.66
72093;BME280;59965;48.192;11.618;2022-07-04T06:35:30;96325.56;;;20.97;68.49
72093;BME280;59965;48.192;11.618;2022-07-04T06:38:18;96319.00;;;20.95;68.00
72093;BME280;59965;48.192;11.618;2022-07-04T06:40:45;96321.19;;;20.94;68.38
72093;BME280;59965;48.192;11.618;2022-07-04T06:43:12;96313.16;;;20.93;68.06
72093;BME280;59965;48.192;11.618;2022-07-04T06:45:38;96324.06;;;20.92;68.60
72093;BME280;59965;48.192;11.618;2022-07-04T06:48:06;96324.78;;;20.93;68.14
72093;BME280;59965;48.192;11.618;2022-07-04T06:50:33;96326.22;;;20.92;68.31
72093;BME280;59965;48.192;11.618;2022-07-04T06:53:04;96332.06;;;20.94;67.70
72093;BME280;59965;48.192;11.618;2022-07-04T06:55:41;96323.31;;;20.92;68.63
72093;BME280;59965;48.192;11.618;2022-07-04T06:58:08;96332.06;;;20.94;68.58
72093;BME280;59965;48.192;11.618;2022-07-04T07:00:35;96334.25;;;20.93;68.21
72093;BME280;59965;48.192;11.618;2022-07-04T07:03:02;96340.03;;;20.91;68.68
72093;BME280;59965;48.192;11.618;2022-07-04T07:05:29;96340.78;;;20.94;68.98
72093;BME280;59965;48.192;11.618;2022-07-04T07:07:55;96341.50;;;20.92;68.43
72093;BME280;59965;48.192;11.618;2022-07-04T07:10:22;96342.94;;;20.91;68.54
72093;BME280;59965;48.192;11.618;2022-07-04T07:12:48;96340.72;;;20.88;68.39
72093;BME280;59965;48.192;11.618;2022-07-04T07:15:14;96337.81;;;20.88;68.07
72093;BME280;59965;48.192;11.618;2022-07-04T07:17:42;96343.59;;;20.86;68.67
72093;BME280;59965;48.192;11.618;2022-07-04T07:20:09;96344.34;;;20.86;68.44
72093;BME280;59965;48.192;11.618;2022-07-04T07:22:35;96344.34;;;20.86;69.16
72093;BME280;59965;48.192;11.618;2022-07-04T07:25:02;96347.22;;;20.84;68.37
72093;BME280;59965;48.192;11.618;2022-07-04T07:27:28;96343.59;;;20.86;68.25
72093;BME280;59965;48.192;11.618;2022-07-04T07:29:54;96335.59;;;20.84;69.32
72093;BME280;59965;48.192;11.618;2022-07-04T07:32:19;96337.75;;;20.84;68.99
72093;BME280;59965;48.192;11.618;2022-07-04T07:34:45;96342.88;;;20.85;68.27
72093;BME280;59965;48.192;11.618;2022-07-04T07:37:11;96342.09;;;20.83;68.47
72093;BME280;59965;48.192;11.618;2022-07-04T07:39:37;96350.09;;;20.82;69.37
72093;BME280;59965;48.192;11.618;2022-07-04T07:42:03;96344.97;;;20.81;69.38
72093;BME280;59965;48.192;11.618;2022-07-04T07:44:29;96350.75;;;20.79;69.23
72093;BME280;59965;48.192;11.618;2022-07-04T07:46:55;96348.53;;;20.75;69.92
72093;BME280;59965;48.192;11.618;2022-07-04T07:49:21;96334.69;;;20.70;70.17
72093;BME280;59965;48.192;11.618;2022-07-04T07:51:47;96329.53;;;20.66;70.31
72093;BME280;59965;48.192;11.618;2022-07-04T07:54:13;96323.03;;;20.66;70.25
72093;BME280;59965;48.192;11.618;2022-07-04T07:56:39;96314.31;;;20.66;70.26
72093;BME280;59965;48.192;11.618;2022-07-04T07:59:05;96312.88;;;20.67;69.32
72093;BME280;59965;48.192;11.618;2022-07-04T08:01:31;96304.88;;;20.65;69.03
72093;BME280;59965;48.192;11.618;2022-07-04T08:03:57;96299.84;;;20.70;69.84
72093;BME280;59965;48.192;11.618;2022-07-04T08:06:41;96298.41;;;20.71;69.17
72093;BME280;59965;48.192;11.618;2022-07-04T08:09:08;96304.22;;;20.73;69.78
72093;BME280;59965;48.192;11.618;2022-07-04T08:11:34;96305.72;;;20.76;69.31
72093;BME280;59965;48.192;11.618;2022-07-04T08:14:00;96310.06;;;20.77;69.17
72093;BME280;59965;48.192;11.618;2022-07-04T08:16:26;96312.28;;;20.78;69.22
72093;BME280;59965;48.192;11.618;2022-07-04T08:18:52;96306.56;;;20.82;68.33
72093;BME280;59965;48.192;11.618;2022-07-04T08:21:17;96294.97;;;20.86;68.86
72093;BME280;59965;48.192;11.618;2022-07-04T08:23:43;96295.00;;;20.90;68.35
72093;BME280;59965;48.192;11.618;2022-07-04T08:26:09;96287.81;;;20.95;68.88
72093;BME280;59965;48.192;11.618;2022-07-04T08:28:35;96287.84;;;21.01;68.28
72093;BME280;59965;48.192;11.618;2022-07-04T08:31:01;96285.00;;;21.07;67.86
72093;BME280;59965;48.192;11.618;2022-07-04T08:33:29;96282.13;;;21.11;67.87
72093;BME280;59965;48.192;11.618;2022-07-04T08:35:55;96280.03;;;21.18;67.97
72093;BME280;59965;48.192;11.618;2022-07-04T08:38:22;96268.44;;;21.22;67.32
72093;BME280;59965;48.192;11.618;2022-07-04T08:40:50;96280.09;;;21.26;67.53
72093;BME280;59965;48.192;11.618;2022-07-04T08:43:23;96280.88;;;21.30;67.19
72093;BME280;59965;48.192;11.618;2022-07-04T08:45:54;96290.34;;;21.37;66.74
72093;BME280;59965;48.192;11.618;2022-07-04T08:48:24;96289.69;;;21.44;65.92
72093;BME280;59965;48.192;11.618;2022-07-04T08:50:56;96278.13;;;21.50;66.55
72093;BME280;59965;48.192;11.618;2022-07-04T08:53:30;96265.81;;;21.56;66.16
72093;BME280;59965;48.192;11.618;2022-07-04T08:55:57;96268.78;;;21.62;65.18
72093;BME280;59965;48.192;11.618;2022-07-04T08:58:43;96265.94;;;21.72;65.04
72093;BME280;59965;48.192;11.618;2022-07-04T09:01:11;96278.31;;;21.78;65.51
72093;BME280;59965;48.192;11.618;2022-07-04T09:03:44;96274.75;;;21.87;63.71
72093;BME280;59965;48.192;11.618;2022-07-04T09:06:12;96281.34;;;21.96;62.63
72093;BME280;59965;48.192;11.618;2022-07-04T09:08:39;96285.75;;;22.03;61.94
72093;BME280;59965;48.192;11.618;2022-07-04T09:11:06;96278.53;;;22.12;62.22
72093;BME280;59965;48.192;11.618;2022-07-04T09:13:32;96281.47;;;22.20;61.51
72093;BME280;59965;48.192;11.618;2022-07-04T09:16:00;96266.97;;;22.28;61.80
72093;BME280;59965;48.192;11.618;2022-07-04T09:18:35;96264.06;;;22.34;62.08
72093;BME280;59965;48.192;11.618;2022-07-04T09:21:05;96272.13;;;22.41;61.36
72093;BME280;59965;48.192;11.618;2022-07-04T09:23:35;96269.25;;;22.47;61.04
72093;BME280;59965;48.192;11.618;2022-07-04T09:26:20;96287.50;;;22.58;59.81
72093;BME280;59965;48.192;11.618;2022-07-04T09:28:57;96279.53;;;22.68;59.43
72093;BME280;59965;48.192;11.618;2022-07-04T09:31:29;96276.63;;;22.78;58.06
72093;BME280;59965;48.192;11.618;2022-07-04T09:34:00;96280.28;;;22.87;58.75
72093;BME280;59965;48.192;11.618;2022-07-04T09:36:29;96280.28;;;22.93;58.33
72093;BME280;59965;48.192;11.618;2022-07-04T09:42:03;96278.13;;;23.05;55.90
72093;BME280;59965;48.192;11.618;2022-07-04T09:44:44;96282.50;;;23.08;56.77
72093;BME280;59965;48.192;11.618;2022-07-04T09:50:19;96273.09;;;23.16;55.37
72093;BME280;59965;48.192;11.618;2022-07-04T09:58:09;96270.16;;;23.31;56.24
72093;BME280;59965;48.192;11.618;2022-07-04T10:00:38;96265.78;;;23.38;56.21
72093;BME280;59965;48.192;11.618;2022-07-04T10:03:20;96265.06;;;23.44;55.36
72093;BME280;59965;48.192;11.618;2022-07-04T10:06:10;96262.16;;;23.50;55.36
72093;BME280;59965;48.192;11.618;2022-07-04T10:08:36;96262.16;;;23.56;55.58
72093;BME280;59965;48.192;11.618;2022-07-04T10:11:04;96265.78;;;23.62;55.54
72093;BME280;59965;48.192;11.618;2022-07-04T10:13:31;96262.13;;;23.68;56.00
72093;BME280;59965;48.192;11.618;2022-07-04T10:15:58;96261.41;;;23.75;55.40
72093;BME280;59965;48.192;11.618;2022-07-04T10:18:25;96261.41;;;23.81;55.21
72093;BME280;59965;48.192;11.618;2022-07-04T10:20:53;96264.31;;;23.87;54.95
72093;BME280;59965;48.192;11.618;2022-07-04T10:23:22;96259.94;;;23.90;54.80
72093;BME280;59965;48.192;11.618;2022-07-04T10:25:51;96275.97;;;23.97;53.77
72093;BME280;59965;48.192;11.618;2022-07-04T10:28:18;96276.69;;;23.98;53.88
72093;BME280;59965;48.192;11.618;2022-07-04T10:30:52;96275.94;;;24.01;54.28
72093;BME280;59965;48.192;11.618;2022-07-04T10:33:28;96282.50;;;24.06;53.68
72093;BME280;59965;48.192;11.618;2022-07-04T10:36:21;96270.84;;;24.08;54.05
72093;BME280;59965;48.192;11.618;2022-07-04T10:38:58;96271.56;;;24.10;52.92
72093;BME280;59965;48.192;11.618;2022-07-04T10:41:27;96271.56;;;24.10;52.61
72093;BME280;59965;48.192;11.618;2022-07-04T10:46:36;96272.28;;;24.15;53.55
72093;BME280;59965;48.192;11.618;2022-07-04T10:49:21;96263.50;;;24.19;53.41
72093;BME280;59965;48.192;11.618;2022-07-04T10:51:52;96265.72;;;24.18;54.24
72093;BME280;59965;48.192;11.618;2022-07-04T10:54:35;96256.94;;;24.20;53.59
72093;BME280;59965;48.192;11.618;2022-07-04T10:57:22;96258.41;;;24.19;53.26
72093;BME280;59965;48.192;11.618;2022-07-04T11:02:35;96246.72;;;24.23;53.02
72093;BME280;59965;48.192;11.618;2022-07-04T11:05:10;96255.47;;;24.23;53.20
72093;BME280;59965;48.192;11.618;2022-07-04T11:17:52;96254.00;;;24.28;51.83
72093;BME280;59965;48.192;11.618;2022-07-04T11:20:19;96260.53;;;24.31;52.58
72093;BME280;59965;48.192;11.618;2022-07-04T11:22:45;96257.59;;;24.33;51.36
72093;BME280;59965;48.192;11.618;2022-07-04T11:25:12;96253.22;;;24.34;52.05
72093;BME280;59965;48.192;11.618;2022-07-04T11:27:39;96251.75;;;24.35;52.18
72093;BME280;59965;48.192;11.618;2022-07-04T11:30:07;96245.19;;;24.38;52.81
72093;BME280;59965;48.192;11.618;2022-07-04T11:32:36;96244.47;;;24.40;52.52
72093;BME280;59965;48.192;11.618;2022-07-04T11:35:06;96234.22;;;24.43;51.98
72093;BME280;59965;48.192;11.618;2022-07-04T11:37:33;96236.38;;;24.48;52.13
72093;BME280;59965;48.192;11.618;2022-07-04T11:39:59;96231.28;;;24.53;52.45
72093;BME280;59965;48.192;11.618;2022-07-04T11:43:04;96229.06;;;24.55;50.43
72093;BME280;59965;48.192;11.618;2022-07-04T11:45:49;96230.53;;;24.54;51.68
72093;BME280;59965;48.192;11.618;2022-07-04T11:48:26;96228.31;;;24.59;51.68
72093;BME280;59965;48.192;11.618;2022-07-04T11:50:53;96226.84;;;24.62;52.37
72093;BME280;59965;48.192;11.618;2022-07-04T11:53:20;96229.75;;;24.66;52.31
72093;BME280;59965;48.192;11.618;2022-07-04T11:55:57;96223.16;;;24.69;52.43
72093;BME280;59965;48.192;11.618;2022-07-04T11:58:42;96212.91;;;24.72;52.07
72093;BME280;59965;48.192;11.618;2022-07-04T12:01:09;96219.44;;;24.78;51.80
72093;BME280;59965;48.192;11.618;2022-07-04T12:03:36;96215.03;;;24.81;51.42
72093;BME280;59965;48.192;11.618;2022-07-04T12:06:03;96212.84;;;24.82;51.07
72093;BME280;59965;48.192;11.618;2022-07-04T12:08:32;96209.91;;;24.86;51.32
72093;BME280;59965;48.192;11.618;2022-07-04T12:10:58;96219.34;;;24.92;51.97
72093;BME280;59965;48.192;11.618;2022-07-04T12:13:24;96211.31;;;24.93;52.57
72093;BME280;59965;48.192;11.618;2022-07-04T12:15:52;96212.72;;;24.98;52.84
72093;BME280;59965;48.192;11.618;2022-07-04T12:18:27;96212.72;;;25.02;52.09
72093;BME280;59965;48.192;11.618;2022-07-04T12:20:55;96208.31;;;25.03;51.52
72093;BME280;59965;48.192;11.618;2022-07-04T12:23:35;96203.88;;;25.08;51.19
72093;BME280;59965;48.192;11.618;2022-07-04T12:26:01;96195.81;;;25.14;52.22
72093;BME280;59965;48.192;11.618;2022-07-04T12:28:35;96193.59;;;25.17;51.64
72093;BME280;59965;48.192;11.618;2022-07-04T12:31:04;96190.66;;;25.19;52.16
72093;BME280;59965;48.192;11.618;2022-07-04T12:33:30;96196.47;;;25.23;52.16
72093;BME280;59965;48.192;11.618;2022-07-04T12:36:04;96177.50;;;25.24;53.10
72093;BME280;59965;48.192;11.618;2022-07-04T12:38:39;96180.38;;;25.30;52.75
72093;BME280;59965;48.192;11.618;2022-07-04T12:41:10;96179.56;;;25.35;52.65
72093;BME280;59965;48.192;11.618;2022-07-04T12:46:31;96167.78;;;25.43;51.95
72093;BME280;59965;48.192;11.618;2022-07-04T12:49:00;96166.28;;;25.46;51.11
72093;BME280;59965;48.192;11.618;2022-07-04T12:51:31;96166.25;;;25.50;50.64
72093;BME280;59965;48.192;11.618;2022-07-04T12:54:05;96172.09;;;25.54;50.44
72093;BME280;59965;48.192;11.618;2022-07-04T12:56:44;96166.94;;;25.55;49.38
72093;BME280;59965;48.192;11.618;2022-07-04T12:59:16;96159.66;;;25.54;50.50
72093;BME280;59965;48.192;11.618;2022-07-04T13:01:46;96159.59;;;25.58;50.94
72093;BME280;59965;48.192;11.618;2022-07-04T13:04:12;96163.28;;;25.58;51.25
72093;BME280;59965;48.192;11.618;2022-07-04T13:06:39;96158.88;;;25.59;49.50
72093;BME280;59965;48.192;11.618;2022-07-04T13:09:06;96161.00;;;25.65;49.74
72093;BME280;59965;48.192;11.618;2022-07-04T13:11:34;96152.16;;;25.69;51.54
72093;BME280;59965;48.192;11.618;2022-07-04T13:14:19;96157.28;;;25.70;51.18
72093;BME280;59965;48.192;11.618;2022-07-04T13:16:45;96156.50;;;25.74;51.28
72093;BME280;59965;48.192;11.618;2022-07-04T13:19:11;96148.44;;;25.76;51.17
72093;BME280;59965;48.192;11.618;2022-07-04T13:21:37;96149.84;;;25.81;51.66
72093;BME280;59965;48.192;11.618;2022-07-04T13:24:04;96138.84;;;25.86;52.11
72093;BME280;59965;48.192;11.618;2022-07-04T13:26:30;96151.25;;;25.88;51.42